Phoenix Cross — MRBQ7 — position and weather

sailwx.info

Track history (hours):
 
Tides and Currents Weather Stations Pressure Air Temp Water Temp Dewpoint Dewpoint Depression Visibility Wind Speed Wind Dir Waves Ship Positions

Phoenix Cross

Last reported at 2017-Mar-16 15:33 UTC. Time now 2017-Mar-29 07:27 UTC.
Position N 54°58' W 001°19'.
Warning: this ship's position is 12 days out of date.

Length 30 m; draft 5 m.

Type: Tug. MMSI: 235067452.

Date/timePositionNaut miles runAvg speedWind from/ knotsBaromVisibWave heightAir tempDewpointWater temp
2017-Mar-16 15:33N 54°58' W 001°19'5 5.2
2017-Mar-16 14:33N 54°59' W 001°28'0 0.3
2017-Mar-16 13:20N 54°59' W 001°27'2 0.3
2017-Mar-16 06:18N 54°59' W 001°31'0 0.0
2017-Mar-16 05:33N 54°59' W 001°31'1 0.1
2017-Mar-15 23:31N 54°59' W 001°30'6 6.1
2017-Mar-15 22:33N 55°05' W 001°26'4 4.1
2017-Mar-15 21:34N 55°08' W 001°30'1 1.1
2017-Mar-15 20:34N 55°07' W 001°29'8 7.4
2017-Mar-15 19:30N 54°59' W 001°27'2 0.3
2017-Mar-15 13:28N 54°59' W 001°31'0 0.0
2017-Mar-15 06:08N 54°59' W 001°31'0 0.0
2017-Mar-15 05:32N 54°59' W 001°31'0 0.0
2017-Mar-15 04:19N 54°59' W 001°31'0 0.0
2017-Mar-14 19:18N 54°59' W 001°31'3 4.6
2017-Mar-14 18:34N 55°01' W 001°25'2 2.0
2017-Mar-14 17:33N 54°59' W 001°28'2 1.2
2017-Mar-14 16:08N 54°59' W 001°31'0 0.0
2017-Mar-14 15:19N 54°59' W 001°31'3 0.8
2017-Mar-14 11:21N 55°00' W 001°26'6 8.1
2017-Mar-14 10:33N 54°56' W 001°18'1 0.1
2017-Mar-13 22:32N 54°57' W 001°19'5 2.5
2017-Mar-13 20:30N 54°59' W 001°27'0 0.4
2017-Mar-13 19:33N 54°59' W 001°28'1 0.7
2017-Mar-13 17:28N 54°59' W 001°30'0 0.2
2017-Mar-13 16:10N 54°59' W 001°31'2 0.6
2017-Mar-13 13:34N 54°59' W 001°28'3 3.2
2017-Mar-13 12:34N 55°00' W 001°23'  
Track history (hours):
 
Tides and Currents Weather Stations Pressure Air Temp Water Temp Dewpoint Dewpoint Depression Visibility Wind Speed Wind Dir Waves Ship Positions

Phoenix Cross

Last reported at 2017-Mar-16 15:33 UTC. Time now 2017-Mar-29 07:27 UTC.
Position N 54°58' W 001°19'.
Warning: this ship's position is 12 days out of date.

Length 30 m; draft 5 m.

Type: Tug. MMSI: 235067452.

Date/timePositionNaut miles runAvg speedWind from/ knotsBaromVisibWave heightAir tempDewpointWater temp
2017-Mar-16 15:33N 54°58' W 001°19'5 5.2
2017-Mar-16 14:33N 54°59' W 001°28'0 0.3
2017-Mar-16 13:20N 54°59' W 001°27'2 0.3
2017-Mar-16 06:18N 54°59' W 001°31'0 0.0
2017-Mar-16 05:33N 54°59' W 001°31'1 0.1
2017-Mar-15 23:31N 54°59' W 001°30'6 6.1
2017-Mar-15 22:33N 55°05' W 001°26'4 4.1
2017-Mar-15 21:34N 55°08' W 001°30'1 1.1
2017-Mar-15 20:34N 55°07' W 001°29'8 7.4
2017-Mar-15 19:30N 54°59' W 001°27'2 0.3
2017-Mar-15 13:28N 54°59' W 001°31'0 0.0
2017-Mar-15 06:08N 54°59' W 001°31'0 0.0
2017-Mar-15 05:32N 54°59' W 001°31'0 0.0
2017-Mar-15 04:19N 54°59' W 001°31'0 0.0
2017-Mar-14 19:18N 54°59' W 001°31'3 4.6
2017-Mar-14 18:34N 55°01' W 001°25'2 2.0
2017-Mar-14 17:33N 54°59' W 001°28'2 1.2
2017-Mar-14 16:08N 54°59' W 001°31'0 0.0
2017-Mar-14 15:19N 54°59' W 001°31'3 0.8
2017-Mar-14 11:21N 55°00' W 001°26'6 8.1
2017-Mar-14 10:33N 54°56' W 001°18'1 0.1
2017-Mar-13 22:32N 54°57' W 001°19'5 2.5
2017-Mar-13 20:30N 54°59' W 001°27'0 0.4
2017-Mar-13 19:33N 54°59' W 001°28'1 0.7
2017-Mar-13 17:28N 54°59' W 001°30'0 0.2
2017-Mar-13 16:10N 54°59' W 001°31'2 0.6
2017-Mar-13 13:34N 54°59' W 001°28'3 3.2
2017-Mar-13 12:34N 55°00' W 001°23'  

Dump ship's entire track history